createdAt,value
2022-10-04T00:04:11.080Z,100.00
2022-10-04T00:09:17.112Z,100.00
2022-10-04T00:14:37.267Z,100.00
2022-10-04T00:19:43.284Z,100.00
2022-10-04T00:25:08.530Z,100.00
2022-10-04T00:30:23.282Z,100.00
2022-10-04T00:35:24.671Z,100.00
2022-10-04T00:40:31.473Z,100.00
2022-10-04T00:46:13.345Z,100.00
2022-10-04T00:51:32.320Z,100.00
2022-10-04T00:56:43.367Z,100.00
2022-10-04T01:01:49.431Z,100.00
2022-10-04T01:06:51.643Z,100.00
2022-10-04T01:12:48.346Z,100.00
2022-10-04T01:18:09.897Z,100.00
2022-10-04T01:23:11.460Z,100.00
2022-10-04T01:28:13.618Z,100.00
2022-10-04T01:33:15.090Z,100.00
2022-10-04T01:38:16.996Z,100.00
2022-10-04T01:43:27.748Z,100.00
2022-10-04T01:48:36.040Z,100.00
2022-10-04T01:53:47.376Z,100.00
2022-10-04T01:59:03.031Z,100.00
2022-10-04T02:04:28.276Z,100.00
2022-10-04T02:09:34.299Z,100.00
2022-10-04T02:14:39.124Z,100.00
2022-10-04T02:19:42.320Z,100.00
2022-10-04T02:24:46.922Z,100.00
2022-10-04T02:29:48.362Z,100.00
2022-10-04T02:34:50.817Z,100.00
2022-10-04T02:40:05.351Z,100.00
2022-10-04T02:45:35.676Z,100.00
2022-10-04T02:50:48.430Z,100.00
2022-10-04T02:55:50.160Z,100.00
2022-10-04T03:00:59.576Z,100.00
2022-10-04T03:06:03.875Z,100.00
2022-10-04T03:11:05.791Z,100.00
2022-10-04T03:16:08.249Z,100.00
2022-10-04T03:21:12.479Z,100.00
2022-10-04T03:26:32.250Z,100.00
2022-10-04T03:31:36.863Z,100.00
2022-10-04T03:36:39.984Z,100.00
2022-10-04T03:41:42.600Z,100.00
2022-10-04T03:46:45.696Z,100.00
2022-10-04T03:51:50.810Z,100.00
2022-10-04T03:56:54.648Z,100.00
2022-10-04T04:02:03.256Z,100.00
2022-10-04T04:07:14.800Z,100.00
2022-10-04T04:12:21.112Z,100.00
2022-10-04T04:17:54.715Z,100.00
2022-10-04T04:23:22.192Z,100.00
2022-10-04T04:28:32.502Z,100.00
2022-10-04T04:33:59.176Z,100.00
2022-10-04T04:39:34.159Z,100.00
2022-10-04T04:44:38.571Z,100.00
2022-10-04T04:49:40.331Z,100.00
2022-10-04T04:54:41.828Z,100.00
2022-10-04T04:59:49.880Z,100.00
2022-10-04T05:05:10.396Z,100.00
2022-10-04T05:10:22.248Z,100.00
2022-10-04T05:15:23.714Z,100.00
2022-10-04T05:20:26.171Z,100.00
2022-10-04T05:25:33.992Z,100.00
2022-10-04T05:30:48.622Z,100.00
2022-10-04T05:36:24.511Z,100.00
2022-10-04T05:41:36.842Z,100.00
2022-10-04T05:46:42.028Z,100.00
2022-10-04T05:51:51.140Z,100.00
2022-10-04T05:57:00.227Z,100.00
2022-10-04T06:02:23.901Z,100.00
2022-10-04T06:07:46.332Z,100.00
2022-10-04T06:13:22.536Z,100.00
2022-10-04T06:18:52.676Z,100.00
2022-10-04T06:24:06.212Z,100.00
2022-10-04T06:29:14.785Z,100.00
2022-10-04T06:34:31.043Z,100.00
2022-10-04T06:40:09.363Z,100.00
2022-10-04T06:45:32.320Z,100.00
2022-10-04T06:51:12.547Z,100.00
2022-10-04T06:56:32.152Z,100.00
2022-10-04T07:01:36.134Z,100.00
2022-10-04T07:06:49.055Z,100.00
2022-10-04T07:12:02.913Z,100.00
2022-10-04T07:17:12.300Z,100.00
2022-10-04T07:22:20.258Z,100.00
2022-10-04T07:27:34.605Z,100.00
2022-10-04T07:32:43.502Z,100.00
2022-10-04T07:37:58.168Z,100.00
2022-10-04T07:43:11.979Z,100.00
2022-10-04T07:48:23.875Z,100.00
2022-10-04T07:53:39.668Z,100.00
2022-10-04T07:58:51.093Z,100.00
2022-10-04T08:04:30.246Z,100.00
2022-10-04T08:09:48.257Z,100.00
2022-10-04T08:14:55.681Z,100.00
2022-10-04T08:20:14.332Z,100.00
2022-10-04T08:25:26.617Z,100.00
2022-10-04T08:30:40.588Z,100.00
2022-10-04T08:36:08.859Z,100.00
2022-10-04T08:41:53.964Z,100.00
2022-10-04T08:47:34.437Z,100.00
2022-10-04T08:52:57.219Z,100.00
2022-10-04T08:58:08.605Z,100.00
2022-10-04T09:03:51.439Z,100.00
2022-10-04T09:09:44.549Z,100.00
2022-10-04T09:15:07.718Z,100.00
2022-10-04T09:20:38.299Z,100.00
2022-10-04T09:25:49.798Z,100.00
2022-10-04T09:31:33.464Z,100.00
2022-10-04T09:37:09.057Z,100.00
2022-10-04T09:42:38.349Z,100.00
2022-10-04T09:48:01.382Z,100.00
2022-10-04T09:53:46.474Z,100.00
2022-10-04T09:59:08.602Z,100.00
2022-10-04T10:04:36.978Z,100.00
2022-10-04T10:10:15.461Z,100.00
2022-10-04T10:15:27.427Z,100.00
2022-10-04T10:20:37.751Z,100.00
2022-10-04T10:26:35.120Z,100.00
2022-10-04T10:32:27.475Z,100.00
2022-10-04T10:38:04.740Z,100.00
2022-10-04T10:43:21.952Z,100.00
2022-10-04T10:48:44.498Z,100.00
2022-10-04T10:54:19.507Z,100.00
2022-10-04T10:59:42.513Z,100.00
2022-10-04T11:04:54.146Z,100.00
2022-10-04T11:10:10.732Z,100.00
2022-10-04T11:15:30.988Z,100.00
2022-10-04T11:20:49.894Z,100.00
2022-10-04T11:25:51.325Z,100.00
2022-10-04T11:30:58.844Z,100.00
2022-10-04T11:36:15.476Z,100.00
2022-10-04T11:41:48.136Z,100.00
2022-10-04T11:46:55.286Z,100.00
2022-10-04T11:52:05.942Z,100.00
2022-10-04T11:57:36.650Z,100.00
2022-10-04T12:03:15.780Z,100.00
2022-10-04T12:08:31.186Z,100.00
2022-10-04T12:13:46.932Z,100.00
2022-10-04T12:19:07.394Z,100.00
2022-10-04T12:24:21.197Z,100.00
2022-10-04T12:29:42.438Z,100.00
2022-10-04T12:35:00.388Z,100.00
2022-10-04T12:40:26.420Z,100.00
2022-10-04T12:45:43.901Z,100.00
2022-10-04T12:51:17.107Z,100.00
2022-10-04T12:58:00.358Z,63.38
2022-10-04T13:03:11.175Z,63.24
2022-10-04T13:08:34.245Z,63.34
2022-10-04T13:13:51.196Z,63.49
2022-10-04T13:19:00.580Z,62.59
2022-10-04T13:24:07.748Z,62.43
2022-10-04T13:29:17.644Z,62.30
2022-10-04T13:34:51.322Z,61.34
2022-10-04T13:40:21.752Z,62.08
2022-10-04T13:46:07.408Z,60.02
2022-10-04T13:52:18.117Z,59.64
2022-10-04T13:57:22.261Z,59.84
2022-10-04T14:02:43.954Z,61.31
2022-10-04T14:08:36.646Z,61.18
2022-10-04T14:14:00.314Z,61.56
2022-10-04T14:19:41.853Z,60.96
2022-10-04T14:25:21.004Z,60.37
2022-10-04T14:30:50.982Z,60.96
2022-10-04T14:36:01.148Z,60.52
2022-10-04T14:41:29.972Z,60.39
2022-10-04T14:46:53.221Z,60.31
2022-10-04T14:52:16.589Z,58.99
2022-10-04T14:57:27.103Z,59.31
2022-10-04T15:02:31.135Z,57.09
2022-10-04T15:07:38.308Z,57.58
2022-10-04T15:13:10.935Z,60.33
2022-10-04T15:18:33.209Z,61.65
2022-10-04T15:23:41.133Z,61.31
2022-10-04T15:28:48.601Z,61.43
2022-10-04T15:34:23.734Z,62.22
2022-10-04T15:39:34.230Z,61.15
2022-10-04T15:44:47.547Z,60.64
2022-10-04T15:49:54.825Z,62.04
2022-10-04T15:55:18.223Z,63.20
2022-10-04T16:00:44.911Z,64.36
2022-10-04T16:06:05.470Z,64.17
2022-10-04T16:11:12.863Z,65.27
2022-10-04T16:16:17.574Z,65.54
2022-10-04T16:21:31.280Z,67.82
2022-10-04T16:26:33.806Z,69.32
2022-10-04T16:31:43.967Z,71.01
2022-10-04T16:36:53.958Z,73.58
2022-10-04T16:41:59.289Z,76.00
2022-10-04T16:47:17.761Z,76.47
2022-10-04T16:52:27.296Z,78.37
2022-10-04T16:57:29.141Z,80.57
2022-10-04T17:02:38.035Z,82.33
2022-10-04T17:08:07.151Z,83.68
2022-10-04T17:13:20.585Z,85.53
2022-10-04T17:18:37.055Z,86.52
2022-10-04T17:23:50.898Z,87.39
2022-10-04T17:29:16.791Z,87.91
2022-10-04T17:35:02.320Z,88.71
2022-10-04T17:40:18.064Z,89.84
2022-10-04T17:45:42.336Z,89.59
2022-10-04T17:51:30.395Z,90.39
2022-10-04T17:56:39.582Z,90.16
2022-10-04T18:01:46.392Z,90.71
2022-10-04T18:06:57.086Z,92.00
2022-10-04T18:12:29.643Z,92.44
2022-10-04T18:17:40.653Z,92.09
2022-10-04T18:22:57.847Z,92.38
2022-10-04T18:28:10.897Z,92.17
2022-10-04T18:33:16.857Z,92.31
2022-10-04T18:38:28.611Z,92.76
2022-10-04T18:43:30.416Z,92.76
2022-10-04T18:48:43.731Z,92.71
2022-10-04T18:53:47.830Z,93.64
2022-10-04T18:59:13.774Z,93.00
2022-10-04T19:04:26.684Z,92.25
2022-10-04T19:09:51.405Z,92.21
2022-10-04T19:15:04.439Z,91.80
2022-10-04T19:20:19.028Z,91.83
2022-10-04T19:25:31.953Z,92.12
2022-10-04T19:30:51.500Z,91.90
2022-10-04T19:36:05.872Z,91.98
2022-10-04T19:41:50.709Z,92.58
2022-10-04T19:47:02.480Z,92.96
2022-10-04T19:52:23.338Z,92.94
2022-10-04T19:57:36.475Z,93.58
2022-10-04T20:02:39.629Z,93.57
2022-10-04T20:07:47.845Z,93.57
2022-10-04T20:13:17.117Z,94.14
2022-10-04T20:18:31.608Z,94.16
2022-10-04T20:23:36.871Z,94.27
2022-10-04T20:28:42.744Z,94.49
2022-10-04T20:33:45.944Z,93.29
2022-10-04T20:39:01.450Z,93.17
2022-10-04T20:44:03.917Z,93.51
2022-10-04T20:49:15.670Z,93.75
2022-10-04T20:54:36.326Z,93.55
2022-10-04T20:59:37.892Z,92.55
2022-10-04T21:04:44.243Z,93.07
2022-10-04T21:09:46.014Z,93.97
2022-10-04T21:15:03.060Z,94.30
2022-10-04T21:20:11.553Z,93.98
2022-10-04T21:25:31.178Z,94.99
2022-10-04T21:30:35.504Z,95.31
2022-10-04T21:35:36.968Z,95.89
2022-10-04T21:40:38.489Z,96.66
2022-10-04T21:45:40.064Z,97.27
2022-10-04T21:50:41.670Z,98.20
2022-10-04T21:55:43.172Z,98.05
2022-10-04T22:00:44.699Z,97.53
2022-10-04T22:05:46.231Z,98.08
2022-10-04T22:10:48.640Z,97.45
2022-10-04T22:15:50.151Z,97.96
2022-10-04T22:20:51.660Z,98.33
2022-10-04T22:25:55.144Z,97.82
2022-10-04T22:31:00.082Z,99.43
2022-10-04T22:36:31.786Z,99.49
2022-10-04T22:41:38.907Z,99.72
2022-10-04T22:46:43.957Z,99.40
2022-10-04T22:51:48.501Z,99.74
2022-10-04T22:56:51.485Z,99.33
2022-10-04T23:01:53.132Z,99.78
2022-10-04T23:06:54.552Z,100.00
2022-10-04T23:11:56.062Z,99.34
2022-10-04T23:16:57.676Z,99.84
2022-10-04T23:21:59.425Z,100.00
2022-10-04T23:27:03.716Z,100.00
2022-10-04T23:37:56.451Z,100.00
2022-10-04T23:43:05.680Z,100.00
2022-10-04T23:48:11.029Z,100.00
2022-10-04T23:53:27.069Z,100.00
2022-10-04T23:58:36.299Z,100.00
